Time;durP1;ratioP1;P1;durP2;ratioP2;P2;SDS_P1;SDS_P2;PMS_P1;PMS_P2;Temp;Humidity;BMP_temperature;BMP_pressure;BME280_temperature;BME280_humidity;BME280_pressure;Samples;Min_cycle;Max_cycle;Signal;HPM_P1;HPM_P2
2022/03/07 00:01:06;;;;;;;9.32;5.18;;;;;;;-0.91;86.60;101632.56;5026137;28;20046;-93
2022/03/07 00:03:33;;;;;;;12.38;6.65;;;;;;;-0.91;86.74;101630.03;5023643;28;20065;-96
2022/03/07 00:06:00;;;;;;;14.40;6.80;;;;;;;-0.89;86.41;101625.88;5021264;28;20057;-95
2022/03/07 00:08:27;;;;;;;16.90;6.85;;;;;;;-0.88;86.20;101626.75;5012493;28;20493;-94
2022/03/07 00:10:54;;;;;;;11.25;5.88;;;;;;;-0.88;86.33;101626.75;5011138;28;20076;-96
2022/03/07 00:13:22;;;;;;;14.48;6.40;;;;;;;-0.87;85.92;101629.38;5012896;28;20050;-95
2022/03/07 00:15:49;;;;;;;12.25;6.75;;;;;;;-0.85;86.40;101622.72;5011109;28;20145;-95
2022/03/07 00:18:16;;;;;;;14.52;6.40;;;;;;;-0.86;85.81;101618.41;5012177;28;20053;-94
2022/03/07 00:20:43;;;;;;;10.48;5.30;;;;;;;-0.87;86.43;101621.75;5013374;28;20069;-95
2022/03/07 00:23:11;;;;;;;11.23;5.10;;;;;;;-0.84;86.31;101619.38;5012327;28;20076;-96
2022/03/07 00:25:38;;;;;;;11.15;5.47;;;;;;;-0.84;86.29;101616.81;5014482;28;20080;-95
2022/03/07 00:28:05;;;;;;;12.88;6.75;;;;;;;-0.83;86.38;101621.13;5012345;28;20501;-95
2022/03/07 00:30:34;;;;;;;11.13;6.18;;;;;;;-0.84;86.22;101618.50;5028658;28;20045;-94
2022/03/07 00:33:01;;;;;;;10.45;6.10;;;;;;;-0.83;86.40;101616.03;5014711;28;20132;-95
2022/03/07 00:35:28;;;;;;;11.38;5.97;;;;;;;-0.84;86.43;101608.31;5012565;28;20049;-95
2022/03/07 00:37:55;;;;;;;12.55;6.30;;;;;;;-0.84;86.20;101609.19;5012489;28;20069;-93
2022/03/07 00:40:22;;;;;;;11.57;5.82;;;;;;;-0.84;86.51;101610.84;5013107;28;20559;-94
2022/03/07 00:42:49;;;;;;;16.15;6.03;;;;;;;-0.83;86.59;101610.06;5012618;28;20042;-95
2022/03/07 00:45:15;;;;;;;12.85;5.90;;;;;;;-0.82;86.40;101607.59;5012957;28;20053;-94
2022/03/07 00:47:44;;;;;;;11.85;5.32;;;;;;;-0.83;86.21;101595.66;5011408;28;20038;-95
2022/03/07 00:50:11;;;;;;;10.32;5.95;;;;;;;-0.82;86.35;101594.88;5019807;28;20038;-96
2022/03/07 00:52:38;;;;;;;11.10;5.47;;;;;;;-0.82;86.57;101597.41;5030671;28;20106;-95
2022/03/07 00:55:06;;;;;;;12.68;5.68;;;;;;;-0.82;86.07;101597.41;5030244;28;20049;-94
2022/03/07 00:57:32;;;;;;;11.75;5.30;;;;;;;-0.82;86.42;101591.44;5030235;28;20070;-93
2022/03/07 00:59:59;;;;;;;11.75;6.00;;;;;;;-0.82;86.09;101592.31;5017956;28;20046;-95
2022/03/07 01:02:29;;;;;;;13.80;5.97;;;;;;;-0.81;86.13;101583.88;5018751;28;20054;-95
2022/03/07 01:04:57;;;;;;;13.38;5.95;;;;;;;-0.82;86.40;101582.13;5017649;28;20049;-95
2022/03/07 01:07:27;;;;;;;14.38;5.78;;;;;;;-0.80;85.70;101575.44;5020746;28;20050;-94
2022/03/07 01:09:54;;;;;;;13.15;5.68;;;;;;;-0.79;85.87;101572.09;5004154;28;20505;-95
2022/03/07 01:12:22;;;;;;;8.68;5.07;;;;;;;-0.80;86.35;101565.25;5016752;28;20046;-94
2022/03/07 01:14:52;;;;;;;14.35;4.95;;;;;;;-0.80;85.85;101562.72;5004203;28;20058;-95
2022/03/07 01:17:19;;;;;;;11.88;5.43;;;;;;;-0.80;85.85;101556.75;5017496;28;20038;-95
2022/03/07 01:19:48;;;;;;;12.23;5.60;;;;;;;-0.81;85.89;101555.88;5009683;28;20155;-95
2022/03/07 01:22:18;;;;;;;7.72;4.35;;;;;;;-0.80;85.93;101550.00;5017259;28;20560;-95
2022/03/07 01:25:04;;;;;;;10.60;5.18;;;;;;;-0.83;86.00;101542.19;5015764;28;20050;-96
2022/03/07 01:27:40;;;;;;;10.35;5.10;;;;;;;-0.82;86.05;101540.53;5034306;28;20041;-93
2022/03/07 01:30:10;;;;;;;9.07;5.38;;;;;;;-0.83;86.07;101534.56;5022236;28;20076;-96
2022/03/07 01:32:42;;;;;;;8.00;4.28;;;;;;;-0.83;86.22;101544.75;5011625;28;20041;-96
2022/03/07 01:35:14;;;;;;;9.75;4.95;;;;;;;-0.81;86.23;101547.38;5014275;28;20056;-95
2022/03/07 01:37:48;;;;;;;12.10;4.90;;;;;;;-0.83;85.82;101534.56;5003104;28;20105;-95
2022/03/07 01:40:19;;;;;;;8.43;4.57;;;;;;;-0.82;86.20;101536.31;5007439;28;20045;-95
2022/03/07 01:42:53;;;;;;;7.38;4.57;;;;;;;-0.81;86.18;101524.47;5008298;28;20046;-94
2022/03/07 01:45:29;;;;;;;8.43;4.93;;;;;;;-0.83;86.32;101532.00;5013342;28;20080;-95
2022/03/07 01:47:58;;;;;;;13.23;5.10;;;;;;;-0.84;86.22;101527.72;5009931;28;20046;-95
2022/03/07 01:50:26;;;;;;;12.20;4.60;;;;;;;-0.86;86.25;101524.22;5014765;28;20042;-94
2022/03/07 01:52:56;;;;;;;8.90;4.90;;;;;;;-0.85;86.65;101522.56;5006383;28;20088;-93
2022/03/07 01:55:23;;;;;;;9.98;4.95;;;;;;;-0.85;86.22;101518.34;5019455;28;20045;-95
2022/03/07 01:58:00;;;;;;;9.90;4.95;;;;;;;-0.86;86.31;101508.97;5016912;28;20053;-95
2022/03/07 02:04:16;;;;;;;8.50;4.53;;;;;;;-0.87;86.72;101512.28;5002999;28;20036;-95
2022/03/07 02:06:47;;;;;;;10.98;5.32;;;;;;;-0.88;86.69;101510.56;5019640;28;20128;-94
2022/03/07 02:09:19;;;;;;;9.98;4.85;;;;;;;-0.88;86.69;101508.00;5011480;28;20095;-94
2022/03/07 02:11:46;;;;;;;10.00;4.55;;;;;;;-0.90;86.92;101501.09;5025683;28;20053;-95
2022/03/07 02:14:14;;;;;;;8.98;5.28;;;;;;;-0.89;87.24;101501.16;5024770;28;20044;-94
2022/03/07 02:16:41;;;;;;;13.05;6.05;;;;;;;-0.90;87.32;101496.88;5029034;28;20041;-95
2022/03/07 02:19:08;;;;;;;9.10;4.53;;;;;;;-0.89;86.91;101503.72;5023834;28;20038;-95
2022/03/07 02:21:35;;;;;;;9.50;5.57;;;;;;;-0.93;87.23;101506.91;5018658;28;20062;-94
2022/03/07 02:24:05;;;;;;;12.88;5.90;;;;;;;-0.94;87.40;101505.16;5044737;28;20049;-93
2022/03/07 02:26:32;;;;;;;9.95;4.90;;;;;;;-0.94;86.83;101499.19;5017290;28;20077;-93
2022/03/07 02:28:58;;;;;;;14.23;6.07;;;;;;;-0.93;87.18;101496.72;5025095;28;20041;-94
2022/03/07 02:31:29;;;;;;;13.65;6.65;;;;;;;-0.94;87.18;101505.16;5019300;28;20140;-94
2022/03/07 02:34:01;;;;;;;12.73;7.30;;;;;;;-0.94;86.86;101509.38;5014920;28;20104;-92
2022/03/07 02:36:27;;;;;;;12.15;5.80;;;;;;;-0.99;87.07;101501.50;5026922;28;20054;-93
2022/03/07 02:38:54;;;;;;;10.77;6.05;;;;;;;-0.99;86.93;101506.59;5033295;28;20060;-94
2022/03/07 02:41:22;;;;;;;9.32;5.63;;;;;;;-1.02;87.19;101511.53;5024728;28;20563;-94
2022/03/07 02:43:51;;;;;;;9.75;5.72;;;;;;;-1.03;87.35;101509.78;5024498;28;20136;-95
2022/03/07 02:46:18;;;;;;;12.48;6.25;;;;;;;-1.03;87.46;101514.88;5027496;28;20042;-95
2022/03/07 02:48:44;;;;;;;12.73;6.25;;;;;;;-1.06;86.95;101513.03;5016499;28;20404;-93
2022/03/07 02:51:14;;;;;;;11.90;5.68;;;;;;;-1.05;87.04;101512.22;5032678;28;20049;-94
2022/03/07 02:53:42;;;;;;;13.77;6.38;;;;;;;-1.05;87.50;101516.44;5026971;28;20037;-93
2022/03/07 02:56:09;;;;;;;14.27;6.15;;;;;;;-1.08;87.49;101511.19;5020617;28;20050;-96
2022/03/07 02:58:37;;;;;;;12.90;6.53;;;;;;;-1.08;87.82;101516.28;5024882;28;20133;-94
2022/03/07 03:01:04;;;;;;;14.88;7.03;;;;;;;-1.10;87.31;101518.75;5021126;28;20481;-95
2022/03/07 03:03:31;;;;;;;13.45;7.10;;;;;;;-1.13;87.41;101510.09;5034098;28;20455;-93
2022/03/07 03:05:57;;;;;;;15.05;6.50;;;;;;;-1.14;87.89;101515.97;5021792;28;20466;-94
2022/03/07 03:08:27;;;;;;;16.88;8.27;;;;;;;-1.17;88.10;101511.59;5011216;28;20129;-93
2022/03/07 03:10:55;;;;;;;15.55;7.45;;;;;;;-1.17;87.85;101520.91;5017774;28;20042;-93
2022/03/07 03:13:22;;;;;;;14.98;6.65;;;;;;;-1.19;88.32;101517.41;5026662;28;20077;-93
2022/03/07 03:15:52;;;;;;;16.77;8.52;;;;;;;-1.22;88.10;101510.50;5019449;28;20108;-94
2022/03/07 03:18:22;;;;;;;18.23;7.97;;;;;;;-1.22;88.13;101507.94;5023625;28;20054;-94
2022/03/07 03:20:51;;;;;;;15.50;7.15;;;;;;;-1.22;88.37;101518.13;5040983;28;20066;-94
2022/03/07 03:23:19;;;;;;;12.82;7.03;;;;;;;-1.24;88.13;101514.63;5022552;28;20081;-93
2022/03/07 03:25:48;;;;;;;16.73;8.45;;;;;;;-1.23;88.41;101510.41;5024200;28;20406;-96
2022/03/07 03:28:15;;;;;;;16.88;8.73;;;;;;;-1.28;88.40;101513.59;5023061;28;20124;-93
2022/03/07 03:30:45;;;;;;;17.55;8.00;;;;;;;-1.28;88.48;101523.78;5016782;28;20048;-94
2022/03/07 03:33:15;;;;;;;17.05;8.25;;;;;;;-1.31;88.58;101523.63;5014690;28;20158;-93
2022/03/07 03:35:42;;;;;;;16.60;7.97;;;;;;;-1.33;88.55;101525.22;5026893;28;20124;-94
2022/03/07 03:38:09;;;;;;;16.20;8.43;;;;;;;-1.35;88.56;101521.72;5024419;28;20575;-93
2022/03/07 03:40:36;;;;;;;16.05;7.30;;;;;;;-1.34;89.08;101523.47;5028848;28;20132;-94
2022/03/07 03:43:03;;;;;;;19.45;8.52;;;;;;;-1.36;89.12;101525.06;5017362;28;20042;-93
2022/03/07 03:45:30;;;;;;;18.00;7.82;;;;;;;-1.34;88.68;101525.13;5022981;28;20490;-93
2022/03/07 03:47:57;;;;;;;18.52;8.65;;;;;;;-1.34;88.98;101523.47;5033156;28;20067;-92
2022/03/07 03:50:25;;;;;;;14.52;7.95;;;;;;;-1.33;89.07;101524.34;5026687;28;20052;-93
2022/03/07 03:52:52;;;;;;;15.25;7.72;;;;;;;-1.34;88.92;101523.47;5021570;28;20083;-95
2022/03/07 03:55:19;;;;;;;16.67;7.78;;;;;;;-1.34;89.14;101520.91;5021641;28;20046;-93
2022/03/07 03:57:46;;;;;;;16.95;8.00;;;;;;;-1.34;89.25;101527.69;5026090;28;20037;-93
2022/03/07 04:00:15;;;;;;;15.63;7.90;;;;;;;-1.32;89.40;101521.00;5017458;28;20080;-93
2022/03/07 04:02:43;;;;;;;14.32;7.45;;;;;;;-1.31;89.17;101531.25;5023630;28;20060;-94
2022/03/07 04:05:10;;;;;;;16.38;7.75;;;;;;;-1.31;89.00;101533.78;5024321;28;20054;-94
2022/03/07 04:07:39;;;;;;;16.73;8.30;;;;;;;-1.29;89.07;101522.03;5017328;28;20428;-92
2022/03/07 04:10:07;;;;;;;17.80;9.07;;;;;;;-1.32;89.15;101524.41;5015790;28;20037;-93
2022/03/07 04:12:34;;;;;;;15.65;8.15;;;;;;;-1.31;89.14;101526.16;5022991;28;20522;-93
2022/03/07 04:15:00;;;;;;;19.30;8.77;;;;;;;-1.29;89.07;101526.25;5032572;28;20042;-94
2022/03/07 04:17:27;;;;;;;15.80;7.25;;;;;;;-1.30;89.04;101524.50;5030054;28;20049;-94
2022/03/07 04:19:53;;;;;;;17.70;7.28;;;;;;;-1.32;89.08;101521.88;5033855;28;20084;-93
2022/03/07 04:22:20;;;;;;;16.27;8.82;;;;;;;-1.31;89.54;101518.53;5017411;28;20053;-92
2022/03/07 04:24:49;;;;;;;15.50;8.45;;;;;;;-1.28;89.28;101531.41;5027779;28;20128;-94
2022/03/07 04:27:15;;;;;;;17.40;7.85;;;;;;;-1.27;89.23;101517.91;5022010;28;20156;-94
2022/03/07 04:29:42;;;;;;;17.75;7.88;;;;;;;-1.28;89.26;101518.69;5028355;28;20037;-95
2022/03/07 04:32:09;;;;;;;15.73;7.55;;;;;;;-1.24;89.07;101522.25;5029009;28;20124;-95
2022/03/07 04:34:36;;;;;;;17.17;7.15;;;;;;;-1.26;89.01;101511.13;5028637;28;20056;-94
2022/03/07 04:37:03;;;;;;;12.45;6.15;;;;;;;-1.24;89.28;101509.53;5031368;28;20496;-95
2022/03/07 04:39:30;;;;;;;13.32;6.55;;;;;;;-1.21;89.17;101519.00;5016784;28;20415;-94
2022/03/07 04:42:00;;;;;;;14.13;6.68;;;;;;;-1.19;89.28;101512.31;5028533;28;20099;-95
2022/03/07 04:44:27;;;;;;;16.08;7.07;;;;;;;-1.18;88.95;101519.16;5031284;28;20453;-95
2022/03/07 04:46:54;;;;;;;15.60;6.18;;;;;;;-1.18;88.99;101521.69;5027017;28;20046;-95
2022/03/07 04:49:21;;;;;;;16.58;7.45;;;;;;;-1.17;89.00;101518.38;5016559;28;20046;-96
2022/03/07 04:51:50;;;;;;;15.80;7.43;;;;;;;-1.16;88.88;101523.53;5021618;28;20519;-95
2022/03/07 04:54:17;;;;;;;19.90;8.52;;;;;;;-1.15;88.94;101525.28;5029583;28;20125;-93
2022/03/07 04:56:47;;;;;;;16.15;7.78;;;;;;;-1.14;88.69;101521.06;5010360;28;20045;-94
2022/03/07 04:59:15;;;;;;;15.57;7.80;;;;;;;-1.16;88.79;101515.03;5010807;28;20046;-94
2022/03/07 05:01:42;;;;;;;15.45;7.25;;;;;;;-1.19;89.20;101513.19;5023097;28;20133;-94
2022/03/07 05:04:08;;;;;;;19.92;7.75;;;;;;;-1.20;88.72;101514.00;5020649;28;20120;-93
2022/03/07 05:06:35;;;;;;;15.27;7.90;;;;;;;-1.17;89.11;101520.91;5015489;28;20056;-93
2022/03/07 05:09:02;;;;;;;12.30;6.30;;;;;;;-1.18;89.01;101519.16;5021323;28;20089;-96
2022/03/07 05:11:29;;;;;;;19.13;6.85;;;;;;;-1.17;88.82;101526.00;5016639;28;20097;-95
2022/03/07 05:13:56;;;;;;;17.45;7.68;;;;;;;-1.16;88.72;101522.66;5022196;28;20045;-94
2022/03/07 05:16:24;;;;;;;16.13;7.07;;;;;;;-1.15;88.79;101526.94;5015063;28;20050;-94
2022/03/07 05:18:50;;;;;;;12.82;6.53;;;;;;;-1.16;88.29;101522.66;5028146;28;20055;-95
2022/03/07 05:21:17;;;;;;;13.98;6.32;;;;;;;-1.16;88.68;101528.63;5015970;28;20056;-96
2022/03/07 05:23:44;;;;;;;14.57;6.68;;;;;;;-1.14;88.66;101531.25;5029433;28;20050;-94
2022/03/07 05:26:11;;;;;;;17.90;8.52;;;;;;;-1.11;88.92;101533.94;5019886;28;20400;-96
2022/03/07 05:28:38;;;;;;;12.80;6.28;;;;;;;-1.13;88.69;101527.91;5019660;28;20047;-94
2022/03/07 05:31:12;;;;;;;13.30;6.38;;;;;;;-1.11;88.60;101528.84;5031816;28;20069;-94
2022/03/07 05:33:41;;;;;;;13.25;6.60;;;;;;;-1.11;88.25;101524.63;5019109;28;20493;-96
2022/03/07 05:36:08;;;;;;;17.45;6.45;;;;;;;-1.09;88.67;101532.34;5025130;28;20056;-94
2022/03/07 05:38:35;;;;;;;12.93;6.18;;;;;;;-1.09;88.45;101532.34;5025180;28;20113;-94
2022/03/07 05:41:01;;;;;;;15.55;6.82;;;;;;;-1.06;88.67;101537.59;5029603;28;20045;-94
2022/03/07 05:43:28;;;;;;;14.73;6.45;;;;;;;-1.06;88.52;101530.84;5015301;28;20042;-94
2022/03/07 05:45:59;;;;;;;15.05;7.63;;;;;;;-1.03;88.54;101535.25;5019117;28;20124;-95
2022/03/07 05:48:26;;;;;;;13.05;6.05;;;;;;;-1.04;88.28;101528.38;5019579;28;20049;-95
2022/03/07 05:50:54;;;;;;;13.93;6.78;;;;;;;-1.02;88.32;101529.34;5025042;28;20149;-95
2022/03/07 05:53:23;;;;;;;15.43;6.72;;;;;;;-0.99;88.45;101526.97;5020358;28;20433;-95
2022/03/07 05:55:50;;;;;;;16.50;5.85;;;;;;;-0.96;88.25;101534.75;5021606;28;20053;-94
2022/03/07 05:58:16;;;;;;;14.18;6.60;;;;;;;-0.91;88.39;101530.75;5013358;28;20057;-94
2022/03/07 06:00:45;;;;;;;13.27;6.00;;;;;;;-0.88;88.46;101538.56;5020584;28;20052;-95
2022/03/07 06:03:12;;;;;;;12.23;5.65;;;;;;;-0.84;88.38;101532.81;5025876;28;20042;-94
2022/03/07 06:05:39;;;;;;;15.18;5.95;;;;;;;-0.81;88.50;101524.47;5039548;28;20120;-94
2022/03/07 06:08:07;;;;;;;13.07;5.68;;;;;;;-0.77;88.47;101524.69;5036602;28;20038;-95
2022/03/07 06:10:34;;;;;;;12.80;6.70;;;;;;;-0.69;88.36;101527.59;5034385;28;20050;-95
2022/03/07 06:13:01;;;;;;;13.88;6.25;;;;;;;-0.65;88.30;101525.28;5022994;28;20153;-94
2022/03/07 06:15:28;;;;;;;11.15;5.38;;;;;;;-0.56;88.42;101516.34;5028194;28;20044;-96
2022/03/07 06:17:57;;;;;;;11.20;5.45;;;;;;;-0.46;88.59;101521.13;5030996;28;20096;-95
2022/03/07 06:20:25;;;;;;;13.75;5.55;;;;;;;-0.36;88.54;101523.31;5022601;28;20049;-96
2022/03/07 06:22:52;;;;;;;11.48;5.20;;;;;;;-0.24;88.50;101523.88;5022637;28;20543;-94
2022/03/07 06:25:20;;;;;;;9.43;5.38;;;;;;;-0.13;88.48;101520.16;5019086;28;20042;-93
2022/03/07 06:27:47;;;;;;;11.30;5.50;;;;;;;0.01;88.40;101519.97;5025426;28;20061;-94
2022/03/07 06:30:14;;;;;;;14.55;6.25;;;;;;;0.14;88.48;101512.06;5016322;28;20112;-94
2022/03/07 06:32:40;;;;;;;12.50;5.25;;;;;;;0.32;88.38;101511.22;5017460;28;20042;-94
2022/03/07 06:35:07;;;;;;;21.48;6.53;;;;;;;0.51;88.32;101514.59;5024970;28;20045;-93
2022/03/07 06:37:34;;;;;;;13.63;5.82;;;;;;;0.70;88.06;101518.88;5020396;28;20037;-95
2022/03/07 06:40:00;;;;;;;10.43;6.00;;;;;;;0.89;87.82;101514.63;5024025;28;20145;-94
2022/03/07 06:42:28;;;;;;;10.80;5.57;;;;;;;1.12;87.36;101512.19;5017051;28;20423;-91
2022/03/07 06:44:55;;;;;;;11.18;5.40;;;;;;;1.34;86.97;101514.81;5035138;28;21221;-96
2022/03/07 06:47:22;;;;;;;7.45;4.45;;;;;;;1.57;86.27;101520.88;5029111;28;20085;-91
2022/03/07 06:49:55;;;;;;;10.18;3.83;;;;;;;1.79;85.19;101518.38;5019469;28;22101;-93
2022/03/07 06:52:22;;;;;;;9.73;4.68;;;;;;;2.02;84.68;101523.50;5014867;28;20121;-92
2022/03/07 06:54:49;;;;;;;12.57;5.13;;;;;;;2.23;84.69;101519.22;5025604;28;20419;-93
2022/03/07 06:57:16;;;;;;;10.73;4.38;;;;;;;2.44;83.39;101525.13;5011157;28;20128;-94
2022/03/07 06:59:44;;;;;;;11.55;4.53;;;;;;;2.66;82.57;101531.06;5027067;28;20046;-92
2022/03/07 07:02:11;;;;;;;10.05;4.30;;;;;;;2.85;81.65;101524.09;5028866;28;20033;-93
2022/03/07 07:04:37;;;;;;;7.43;3.70;;;;;;;3.01;80.42;101522.94;5014533;28;20499;-94
2022/03/07 07:07:04;;;;;;;7.55;4.13;;;;;;;3.16;79.43;101520.94;5040594;28;20080;-96
2022/03/07 07:09:31;;;;;;;9.38;4.25;;;;;;;3.36;78.64;101523.28;5015978;28;20133;-93
2022/03/07 07:11:58;;;;;;;9.15;4.35;;;;;;;3.50;78.06;101522.03;5019566;28;20523;-96
2022/03/07 07:14:25;;;;;;;9.13;4.22;;;;;;;3.62;76.75;101512.16;5027313;28;20168;-94
2022/03/07 07:16:54;;;;;;;7.32;3.72;;;;;;;3.71;76.59;101517.63;5032992;28;20053;-92
2022/03/07 07:19:20;;;;;;;10.43;4.00;;;;;;;3.78;75.66;101508.44;5032708;28;20049;-96
2022/03/07 07:21:47;;;;;;;7.18;3.83;;;;;;;3.85;74.80;101512.06;5028063;28;20048;-95
2022/03/07 07:24:14;;;;;;;9.18;4.70;;;;;;;3.91;74.10;101499.41;5030567;28;20042;-96
2022/03/07 07:26:41;;;;;;;8.48;3.90;;;;;;;3.99;73.80;101508.22;5031303;28;20591;-96
2022/03/07 07:29:07;;;;;;;7.68;3.92;;;;;;;4.07;73.55;101511.88;5026825;28;20037;-95
2022/03/07 07:31:34;;;;;;;9.90;4.72;;;;;;;4.16;73.33;101512.16;5012049;28;20062;-95
2022/03/07 07:34:02;;;;;;;10.43;4.93;;;;;;;4.21;72.57;101508.06;5016525;28;20181;-95
2022/03/07 07:36:29;;;;;;;6.55;3.47;;;;;;;4.33;72.84;101516.13;5024594;28;20060;-96
2022/03/07 07:38:56;;;;;;;6.40;3.05;;;;;;;4.42;72.28;101511.25;5021161;28;20108;-95
2022/03/07 07:41:28;;;;;;;12.02;4.07;;;;;;;4.51;72.28;101505.50;5031113;28;20081;-95
2022/03/07 07:43:54;;;;;;;8.13;3.50;;;;;;;4.65;71.64;101509.31;5022352;28;20054;-95
2022/03/07 07:46:21;;;;;;;7.07;3.38;;;;;;;4.82;72.21;101514.94;5041789;23;20077;-52
2022/03/07 07:48:48;;;;;;;8.30;4.13;;;;;;;4.98;71.03;101514.53;5004806;28;20050;-48
2022/03/07 07:51:18;;;;;;;7.63;3.67;;;;;;;5.15;70.61;101514.09;4994987;28;20049;-57
2022/03/07 07:53:45;;;;;;;9.82;3.33;;;;;;;5.32;70.70;101515.44;4996254;28;20053;-58
2022/03/07 07:56:12;;;;;;;10.07;3.88;;;;;;;5.50;69.66;101505.59;5001901;28;20081;-57
2022/03/07 07:58:39;;;;;;;9.55;3.00;;;;;;;5.65;68.90;101511.09;5004266;28;20824;-56
2022/03/07 08:01:05;;;;;;;6.55;2.90;;;;;;;5.80;68.34;101514.91;5000560;28;20054;-50
2022/03/07 08:03:32;;;;;;;5.95;3.20;;;;;;;5.96;67.67;101512.75;5007030;28;20068;-60
2022/03/07 08:05:59;;;;;;;5.85;2.97;;;;;;;6.12;67.44;101508.78;5002908;28;20057;-58
2022/03/07 08:08:27;;;;;;;4.25;2.50;;;;;;;6.35;67.30;101505.88;4999845;28;20074;-58
2022/03/07 08:10:54;;;;;;;6.03;2.20;;;;;;;6.60;66.54;101515.84;4999459;28;20053;-58
2022/03/07 08:13:21;;;;;;;4.03;1.60;;;;;;;6.83;64.79;101522.31;5005192;28;20046;-59
2022/03/07 08:15:47;;;;;;;5.55;1.88;;;;;;;7.05;63.98;101518.44;5008008;28;20050;-61
2022/03/07 08:18:14;;;;;;;6.63;1.88;;;;;;;7.27;63.34;101520.56;5005245;28;20056;-57
2022/03/07 08:20:40;;;;;;;3.38;2.00;;;;;;;7.52;62.00;101516.69;5000790;28;20398;-56
2022/03/07 08:23:07;;;;;;;5.57;1.58;;;;;;;7.77;61.14;101511.91;5000645;28;20054;-60
2022/03/07 08:25:35;;;;;;;6.90;2.05;;;;;;;8.03;60.75;101514.91;4999115;28;20148;-61
2022/03/07 08:28:03;;;;;;;4.60;1.70;;;;;;;8.29;59.66;101523.88;5002914;28;20038;-60
2022/03/07 08:30:30;;;;;;;6.72;1.95;;;;;;;8.58;58.69;101529.47;5005344;28;20049;-59
2022/03/07 08:32:56;;;;;;;6.13;2.38;;;;;;;8.81;57.74;101535.78;5001880;28;20046;-52
2022/03/07 08:35:24;;;;;;;6.85;2.00;;;;;;;9.05;56.94;101531.75;4999750;28;20046;-46
2022/03/07 08:37:52;;;;;;;4.18;1.83;;;;;;;9.25;55.17;101538.00;5007238;28;20144;-47
2022/03/07 08:40:21;;;;;;;3.10;1.15;;;;;;;9.39;53.86;101533.84;5000784;28;20046;-52
2022/03/07 08:42:49;;;;;;;4.72;1.38;;;;;;;9.60;52.95;101532.28;5005131;28;20053;-48
2022/03/07 08:45:16;;;;;;;2.42;1.38;;;;;;;9.82;52.84;101531.59;5001799;28;20057;-49
2022/03/07 08:47:43;;;;;;;5.57;1.50;;;;;;;10.09;51.17;101536.97;5008220;28;20061;-48
2022/03/07 08:50:12;;;;;;;3.28;1.23;;;;;;;10.34;50.49;101524.19;5001509;28;20059;-49
2022/03/07 08:52:40;;;;;;;5.65;1.42;;;;;;;10.56;49.30;101527.78;4998351;28;20414;-57
2022/03/07 08:55:08;;;;;;;3.15;1.55;;;;;;;10.74;48.38;101533.88;4996811;28;20045;-53
2022/03/07 08:57:35;;;;;;;5.70;1.70;;;;;;;10.87;47.93;101534.78;5000757;28;20054;-57
2022/03/07 09:00:05;;;;;;;3.38;1.48;;;;;;;10.96;46.89;101533.97;5001920;28;20046;-55
2022/03/07 09:02:31;;;;;;;3.85;1.40;;;;;;;11.04;47.00;101542.66;4998648;28;20045;-57
2022/03/07 09:04:58;;;;;;;5.78;1.40;;;;;;;11.10;45.99;101537.47;5000785;28;20411;-59
2022/03/07 09:07:27;;;;;;;6.05;1.50;;;;;;;11.10;45.49;101541.78;5005263;28;20049;-60
2022/03/07 09:09:53;;;;;;;3.55;1.35;;;;;;;11.00;45.61;101536.59;5001557;28;20458;-60
2022/03/07 09:12:22;;;;;;;3.25;1.30;;;;;;;10.88;45.71;101535.66;5000564;28;20402;-57
2022/03/07 09:14:48;;;;;;;4.45;1.58;;;;;;;10.85;46.29;101536.50;5002482;28;20050;-57
2022/03/07 09:17:16;;;;;;;5.15;1.50;;;;;;;10.74;45.38;101541.66;5004785;28;20572;-56
2022/03/07 09:19:42;;;;;;;4.20;1.50;;;;;;;10.62;46.22;101543.34;4996165;28;20050;-57
2022/03/07 09:22:09;;;;;;;8.35;1.67;;;;;;;10.61;46.63;101539.03;5003259;28;20398;-56
2022/03/07 09:24:35;;;;;;;5.20;1.92;;;;;;;10.59;46.61;101546.78;4996762;28;20058;-57
2022/03/07 09:27:02;;;;;;;3.95;1.70;;;;;;;10.59;46.95;101539.03;5007616;28;20045;-56
2022/03/07 09:29:30;;;;;;;4.05;1.50;;;;;;;10.67;46.90;101544.22;4999248;28;20490;-56
2022/03/07 09:31:58;;;;;;;5.43;1.88;;;;;;;10.74;46.85;101546.00;5003262;28;20045;-56
2022/03/07 09:34:25;;;;;;;5.78;1.88;;;;;;;10.88;46.74;101546.03;4996893;28;20053;-55
2022/03/07 09:36:52;;;;;;;7.13;2.25;;;;;;;11.03;46.23;101540.91;5001294;28;20418;-55
2022/03/07 09:39:18;;;;;;;7.38;2.33;;;;;;;11.13;46.06;101553.03;5001369;28;20077;-47
2022/03/07 09:41:45;;;;;;;9.73;2.30;;;;;;;11.21;45.54;101553.91;5000835;28;20050;-50
2022/03/07 09:44:11;;;;;;;6.20;2.55;;;;;;;11.20;45.29;101559.13;4997070;28;20053;-47
2022/03/07 09:46:38;;;;;;;5.68;2.38;;;;;;;11.04;45.50;101560.81;5002196;28;20061;-59
2022/03/07 09:49:04;;;;;;;5.53;2.08;;;;;;;10.90;45.57;101563.34;4999809;28;20058;-48
2022/03/07 09:51:33;;;;;;;5.95;2.55;;;;;;;10.68;46.08;101564.97;5002539;28;20046;-49
2022/03/07 09:53:59;;;;;;;6.72;2.00;;;;;;;10.60;46.07;101564.09;4998963;28;20046;-56
2022/03/07 09:56:27;;;;;;;5.68;2.10;;;;;;;10.48;44.90;101569.22;5000334;28;20042;-56
2022/03/07 09:58:54;;;;;;;4.53;1.42;;;;;;;10.31;44.87;101571.69;4999010;28;20450;-57
2022/03/07 10:01:20;;;;;;;5.45;1.95;;;;;;;10.07;45.18;101564.59;5003155;28;20056;-59
2022/03/07 10:03:48;;;;;;;3.47;1.27;;;;;;;9.86;45.87;101564.41;5002314;28;20052;-56
2022/03/07 10:06:16;;;;;;;4.47;1.55;;;;;;;9.79;47.04;101562.63;5003501;28;20045;-54
2022/03/07 10:08:54;;;;;;;3.00;1.70;;;;;;;9.71;46.56;101564.31;5002686;28;20042;-61
2022/03/07 10:11:22;;;;;;;5.00;1.75;;;;;;;9.65;46.83;101569.44;4998761;28;20072;-56
2022/03/07 10:13:53;;;;;;;3.53;1.20;;;;;;;9.63;46.60;101571.13;5000746;28;20058;-57
2022/03/07 10:16:21;;;;;;;5.60;1.75;;;;;;;9.64;47.61;101565.09;4997644;28;20530;-58
2022/03/07 10:18:52;;;;;;;6.03;1.50;;;;;;;9.61;46.99;101563.34;4998941;28;20054;-58
2022/03/07 10:21:23;;;;;;;3.25;1.42;;;;;;;9.66;46.91;101577.22;4996699;28;20060;-60
2022/03/07 10:23:56;;;;;;;7.68;1.30;;;;;;;9.67;46.59;101578.94;4998252;28;20057;-55
2022/03/07 10:26:24;;;;;;;5.28;1.27;;;;;;;9.60;46.58;101576.28;4993338;28;20058;-53
2022/03/07 10:28:55;;;;;;;5.45;1.40;;;;;;;9.58;46.69;101583.16;4993479;28;20046;-58
2022/03/07 10:31:21;;;;;;;4.75;1.10;;;;;;;9.55;46.36;101585.75;4991246;28;20053;-53
2022/03/07 10:33:49;;;;;;;3.97;1.65;;;;;;;9.52;46.32;101583.13;4993637;28;20062;-58
2022/03/07 10:36:15;;;;;;;6.47;1.52;;;;;;;9.59;46.91;101582.31;4990297;28;20491;-56
2022/03/07 10:38:43;;;;;;;5.85;1.70;;;;;;;9.70;47.44;101575.50;4996177;28;20053;-48
2022/03/07 10:41:12;;;;;;;7.07;1.80;;;;;;;9.87;47.06;101566.16;4995636;28;20557;-64
2022/03/07 10:43:47;;;;;;;6.28;2.10;;;;;;;9.96;45.73;101586.97;5001715;28;20136;-60
2022/03/07 10:46:24;;;;;;;6.22;1.73;;;;;;;10.09;45.94;101578.44;4995791;28;20542;-58
2022/03/07 10:48:51;;;;;;;4.95;1.27;;;;;;;10.12;45.86;101578.44;4999052;28;20066;-59
2022/03/07 10:51:20;;;;;;;3.90;1.48;;;;;;;10.23;46.08;101580.28;4994088;28;20050;-59
2022/03/07 10:53:47;;;;;;;7.38;1.52;;;;;;;10.36;46.08;101582.94;4989565;28;20054;-61
2022/03/07 10:56:17;;;;;;;5.85;1.48;;;;;;;10.52;45.98;101572.69;4992209;28;20053;-57
2022/03/07 10:58:48;;;;;;;4.35;1.42;;;;;;;10.66;46.18;101586.59;4990116;28;20050;-57
2022/03/07 11:01:15;;;;;;;6.32;1.60;;;;;;;10.76;45.34;101583.16;4997886;28;20060;-56
2022/03/07 11:03:41;;;;;;;3.45;1.42;;;;;;;10.83;44.40;101584.91;4993029;28;20057;-61
2022/03/07 11:06:09;;;;;;;6.00;1.75;;;;;;;10.93;44.83;101588.44;4998557;28;20060;-59
2022/03/07 11:08:36;;;;;;;4.03;1.40;;;;;;;11.02;44.09;101580.69;4995333;28;20078;-60
2022/03/07 11:11:02;;;;;;;4.57;1.55;;;;;;;11.07;44.09;101584.16;4996124;28;20062;-53
2022/03/07 11:13:34;;;;;;;5.35;1.63;;;;;;;11.09;43.97;101582.44;4999616;28;20046;-59
2022/03/07 11:16:02;;;;;;;3.72;1.20;;;;;;;11.10;43.68;101591.97;4994854;28;20049;-58
2022/03/07 11:18:31;;;;;;;5.40;1.20;;;;;;;11.10;43.96;101585.91;5001806;28;20051;-58
2022/03/07 11:20:59;;;;;;;6.57;1.30;;;;;;;11.10;43.74;101584.19;4997419;28;20803;-58
2022/03/07 11:23:26;;;;;;;3.97;1.25;;;;;;;11.07;44.42;101584.16;4999525;28;20061;-58
2022/03/07 11:25:55;;;;;;;2.90;1.20;;;;;;;11.03;44.26;101572.91;5006690;28;20046;-58
2022/03/07 11:28:23;;;;;;;5.10;1.70;;;;;;;11.02;44.18;101578.97;5001920;28;20058;-58